KE4AMH Weather Reports


Display with metric or nautical units.
time (UTC)temp
F
wind
direction
speed
MPH
gust
MPH
rain 1hr
in
rain 24hr
in
rain mn
in
humidity
%
barometer
mb
20260505204357 80 289 2.0 5.0 0.00 0.00 0.00 40 1013.7
20260505203855 80 184 0.0 3.0 0.00 0.00 0.00 41 1013.6
20260505203351 79 210 2.0 5.0 0.00 0.00 0.00 41 1013.7
20260505202847 80 264 0.0 6.0 0.00 0.00 0.00 42 1013.6
20260505202344 80 189 0.0 4.0 0.00 0.00 0.00 41 1013.7
20260505201840 80 258 3.0 6.0 0.00 0.00 0.00 41 1013.7
20260505201338 79 196 5.0 8.0 0.00 0.00 0.00 41 1013.8
20260505200836 80 169 3.0 4.0 0.00 0.00 0.00 41 1013.9
20260505200333 80 162 1.0 6.0 0.00 0.00 0.00 40 1013.9
20260505195828 80 180 2.0 5.0 0.00 0.00 0.00 41 1014.0
20260505195325 80 265 2.0 6.0 0.00 0.00 0.00 42 1014.0
20260505194822 80 312 2.0 3.0 0.00 0.00 0.00 41 1014.3
20260505194320 80 261 1.0 5.0 0.00 0.00 0.00 40 1014.4
20260505193815 80 195 0.0 6.0 0.00 0.00 0.00 41 1014.6
20260505193313 80 96 2.0 6.0 0.00 0.00 0.00 41 1014.5
20260505192811 80 201 2.0 5.0 0.00 0.00 0.00 41 1014.1
20260505192310 81 257 1.0 4.0 0.00 0.00 0.00 40 1014.4
20260505191806 81 0 0.0 3.0 0.00 0.00 0.00 40 1014.8
20260505191304 81 312 0.0 2.0 0.00 0.00 0.00 42 1014.9
20260505190801 80 246 2.0 5.0 0.00 0.00 0.00 41 1014.8
20260505190256 80 239 2.0 6.0 0.00 0.00 0.00 40 1015.1
20260505185752 81 270 3.0 3.0 0.00 0.00 0.00 41 1014.9
20260505185249 82 262 2.0 11.0 0.00 0.00 0.00 41 1015.1
20260505184745 81 277 3.0 4.0 0.00 0.00 0.00 40 1015.1
20260505184242 81 180 5.0 5.0 0.00 0.00 0.00 39 1015.2
20260505183739 79 218 5.0 9.0 0.00 0.00 0.00 40 1015.4
20260505183236 80 282 2.0 3.0 0.00 0.00 0.00 41 1015.3
20260505182733 81 20 1.0 7.0 0.00 0.00 0.00 40 1015.3
20260505182230 80 187 0.0 10.0 0.00 0.00 0.00 41 1015.1
20260505181726 80 180 2.0 4.0 0.00 0.00 0.00 40 1015.3
20260505181224 80 230 4.0 5.0 0.00 0.00 0.00 42 1015.3
20260505180720 80 172 2.0 4.0 0.00 0.00 0.00 39 1015.5
20260505180217 80 198 0.0 4.0 0.00 0.00 0.00 39 1015.4
20260505175713 79 246 0.0 2.0 0.00 0.00 0.00 41 1015.3
20260505175209 79 288 3.0 3.0 0.00 0.00 0.00 40 1015.5
20260505174706 79 270 0.0 9.0 0.00 0.00 0.00 41 1015.6
20260505174203 79 281 2.0 3.0 0.00 0.00 0.00 42 1015.7
20260505173659 79 111 0.0 6.0 0.00 0.00 0.00 40 1015.9
20260505173156 79 227 3.0 4.0 0.00 0.00 0.00 41 1015.8
20260505172653 79 152 3.0 5.0 0.00 0.00 0.00 43 1015.9
20260505172150 78 254 1.0 5.0 0.00 0.00 0.00 46 1016.1
20260505171649 77 243 2.0 4.0 0.00 0.00 0.00 46 1015.9
20260505171147 76 180 6.0 7.0 0.00 0.00 0.00 45 1016.0
20260505170644 78 196 0.0 6.0 0.00 0.00 0.00 45 1016.5
20260505170141 78 270 2.0 10.0 0.00 0.00 0.00 46 1016.6
20260505165641 79 295 2.0 4.0 0.00 0.00 0.00 44 1016.5
20260505165137 78 208 3.0 10.0 0.00 0.00 0.00 45 1016.1
20260505164633 78 250 2.0 4.0 0.00 0.00 0.00 45 1016.3
20260505164130 77 75 1.0 6.0 0.00 0.00 0.00 45 1016.3
20260505163629 77 166 3.0 9.0 0.00 0.00 0.00 45 1016.4
20260505163126 78 277 0.0 3.0 0.00 0.00 0.00 43 1016.3
20260505162623 77 301 2.0 3.0 0.00 0.00 0.00 44 1016.4
20260505162121 78 139 7.0 7.0 0.00 0.00 0.00 44 1016.4
20260505161618 78 159 2.0 3.0 0.00 0.00 0.00 47 1016.1
20260505161115 77 160 1.0 4.0 0.00 0.00 0.00 47 1016.5
20260505160613 77 250 2.0 3.0 0.00 0.00 0.00 49 1016.5
20260505160110 76 172 3.0 5.0 0.00 0.00 0.00 49 1016.8
20260505153049 74 285 0.0 3.0 0.00 0.00 0.00 54 1017.0
20260505152546 75 254 0.0 3.0 0.00 0.00 0.00 55 1016.8
20260505152042 72 270 2.0 3.0 0.00 0.00 0.00 57 1017.0
20260505151537 70 138 3.0 5.0 0.00 0.00 0.00 58 1017.1
20260505151035 72 172 0.0 3.0 0.00 0.00 0.00 59 1017.0
20260505150531 71 165 4.0 4.0 0.00 0.00 0.00 58 1016.8
20260505140456 67 255 2.0 3.0 0.00 0.00 0.00 61 1016.7
20260505124909 63 307 0.0 2.0 0.00 0.00 0.00 77 1016.3
20260505124407 62 261 0.0 2.0 0.00 0.00 0.00 76 1016.4
20260505123902 61 270 0.0 2.0 0.00 0.00 0.00 79 1016.3
20260505123359 59 270 0.0 1.0 0.00 0.00 0.00 80 1016.4
20260505122855 59 0 0.0 1.0 0.00 0.00 0.00 80 1016.5
20260505122353 58 246 0.0 2.0 0.00 0.00 0.00 82 1016.1
20260505121849 57 180 2.0 4.0 0.00 0.00 0.00 84 1016.1
20260505121346 55 164 2.0 2.0 0.00 0.00 0.00 85 1015.9
20260505120842 54 166 0.0 1.0 0.00 0.00 0.00 86 1016.3
20260505120338 53 159 0.0 2.0 0.00 0.00 0.00 86 1016.1
20260505115837 53 180 0.0 0.0 0.00 0.00 0.00 87 1016.1
20260505115334 52 203 0.0 0.0 0.00 0.00 0.00 87 1016.4
20260505114832 51 203 0.0 1.0 0.00 0.00 0.00 87 1016.0
20260505114328 50 180 0.0 1.0 0.00 0.00 0.00 88 1016.0
20260505113825 50 187 0.0 1.0 0.00 0.00 0.00 89 1015.9
20260505113321 50 81 0.0 0.0 0.00 0.00 0.00 89 1015.8
20260505112817 49 81 0.0 0.0 0.00 0.00 0.00 91 1015.4
20260505112315 48 81 0.0 0.0 0.00 0.00 0.00 91 1015.6
20260505111810 48 29 0.0 1.0 0.00 0.00 0.00 91 1015.5
20260505111306 48 29 2.0 2.0 0.00 0.00 0.00 91 1015.5
20260505110802 48 23 0.0 1.0 0.00 0.00 0.00 91 1015.6
20260505110300 48 15 0.0 3.0 0.00 0.00 0.00 90 1015.3
20260505101734 51 160 0.0 0.0 0.00 0.00 0.00 81 1015.2
20260505101230 52 160 0.0 0.0 0.00 0.00 0.00 78 1015.2
20260505100727 53 160 0.0 0.0 0.00 0.00 0.00 77 1015.3
20260505100223 53 175 0.0 0.0 0.00 0.00 0.00 76 1015.2
20260505095718 53 175 0.0 0.0 0.00 0.00 0.00 77 1015.3
20260505095217 53 175 0.0 2.0 0.00 0.00 0.00 76 1015.4
20260505094712 53 180 0.0 1.0 0.00 0.00 0.00 77 1015.3
20260505094209 53 15 0.0 0.0 0.00 0.00 0.00 79 1015.3
20260505093705 53 15 0.0 0.0 0.00 0.00 0.00 78 1015.2
20260505093203 53 15 0.0 1.0 0.00 0.00 0.00 77 1015.3
20260505092659 53 261 0.0 0.0 0.00 0.00 0.00 76 1015.4
20260505092158 54 270 0.0 1.0 0.00 0.00 0.00 75 1015.4
20260505091655 53 180 0.0 1.0 0.00 0.00 0.00 76 1015.3
20260505091153 53 195 0.0 1.0 0.00 0.00 0.00 75 1015.2
20260505090650 53 188 0.0 0.0 0.00 0.00 0.00 76 1015.1
20260505090148 53 188 0.0 2.0 0.00 0.00 0.00 77 1015.2
20260505085645 54 191 0.0 0.0 0.00 0.00 0.00 76 1014.9
20260505085143 54 186 1.0 2.0 0.00 0.00 0.00 76 1015.2
20260505084641 53 195 0.0 1.0 0.00 0.00 0.00 76 1015.0
20260505084139 53 180 0.0 1.0 0.00 0.00 0.00 78 1015.3
20260505083636 53 180 0.0 0.0 0.00 0.00 0.00 80 1015.2
20260505083132 53 172 0.0 0.0 0.00 0.00 0.00 79 1015.3
20260505082628 52 180 0.0 1.0 0.00 0.00 0.00 80 1015.4
20260505082125 52 294 0.0 0.0 0.00 0.00 0.00 81 1015.2
20260505081621 52 0 0.0 0.0 0.00 0.00 0.00 80 1015.2
20260505081119 53 145 0.0 1.0 0.00 0.00 0.00 80 1015.0
20260505080615 53 0 0.0 1.0 0.00 0.00 0.00 80 1015.0
20260505080112 53 307 2.0 2.0 0.00 0.00 0.00 80 1015.2
20260505075608 53 162 2.0 2.0 0.00 0.00 0.00 79 1014.9
20260505075105 53 203 0.0 0.0 0.00 0.00 0.00 79 1015.0
20260505074602 54 203 0.0 0.0 0.00 0.00 0.00 77 1015.0
20260505074059 54 254 0.0 0.0 0.00 0.00 0.00 77 1014.6
20260505073556 55 254 0.0 0.0 0.00 0.00 0.00 75 1015.0
20260505073055 55 220 0.0 2.0 0.00 0.00 0.00 75 1014.8
20260505072550 55 188 0.0 0.0 0.00 0.00 0.00 75 1014.8
20260505072047 55 188 0.0 0.0 0.00 0.00 0.00 74 1014.9
20260505071542 56 188 0.0 0.0 0.00 0.00 0.00 72 1015.0
20260505071041 56 180 0.0 0.0 0.00 0.00 0.00 72 1014.8
20260505070538 56 188 0.0 1.0 0.00 0.00 0.00 71 1015.0
20260505070033 57 188 0.0 0.0 0.00 0.00 0.00 71 1014.8
20260505065529 57 195 0.0 1.0 0.00 0.00 0.00 70 1014.7
20260505065026 57 180 0.0 0.0 0.00 0.00 0.00 71 1014.9
20260505064523 57 195 0.0 1.0 0.00 0.00 0.00 69 1014.8
20260505064022 57 195 0.0 1.0 0.00 0.00 0.00 68 1014.8
20260505063519 58 203 0.0 1.0 0.00 0.00 0.00 67 1014.7
20260505063014 58 254 0.0 1.0 0.00 0.00 0.00 66 1015.0
20260505062511 59 200 0.0 0.0 0.00 0.00 0.00 65 1015.0
20260505062008 59 200 0.0 0.0 0.00 0.00 0.00 67 1015.1
20260505061506 59 200 0.0 0.0 0.00 0.00 0.00 65 1015.0
20260505061004 59 195 0.0 1.0 0.00 0.00 0.00 64 1015.0
20260505060501 60 188 0.0 0.0 0.00 0.00 0.00 63 1015.0
20260505055957 60 175 0.0 1.0 0.00 0.00 0.00 62 1015.0
20260505055453 60 180 0.0 1.0 0.00 0.00 0.00 62 1015.0
20260505054950 60 192 0.0 1.0 0.00 0.00 0.00 63 1015.0
20260505054447 60 195 0.0 1.0 0.00 0.00 0.00 63 1015.1
20260505053945 60 246 0.0 1.0 0.00 0.00 0.00 62 1015.2
20260505053442 61 209 0.0 1.0 0.00 0.00 0.00 61 1015.1
20260505052938 61 270 0.0 1.0 0.00 0.00 0.00 62 1015.3
20260505052436 61 270 0.0 0.0 0.00 0.00 0.00 62 1015.1
20260505051933 60 286 0.0 0.0 0.00 0.00 0.00 64 1015.0
20260505051429 59 286 0.0 1.0 0.00 0.00 0.00 66 1015.2
20260505050928 58 0 0.0 0.0 0.00 0.00 0.00 75 1015.1
20260505050426 57 0 0.0 0.0 0.00 0.00 0.00 78 1015.2
20260505041353 58 7 0.0 0.0 0.00 0.00 0.00 73 1015.1
20260505040850 59 7 0.0 0.0 0.00 0.00 0.00 71 1015.3
20260505040348 60 7 0.0 1.0 0.00 0.00 0.00 68 1015.3
20260505035844 60 270 0.0 0.0 0.00 0.00 0.00 68 1015.4
20260505035340 61 270 0.0 0.0 0.00 0.00 0.00 67 1015.2
20260505034838 62 270 0.0 0.0 0.00 0.00 0.00 61 1015.2
20260505034334 62 289 0.0 0.0 0.00 0.00 0.00 60 1015.1
20260505033832 62 262 0.0 0.0 0.00 0.00 0.00 59 1015.2
20260505033328 63 262 0.0 1.0 0.00 0.00 0.00 59 1015.3
20260505032827 63 300 0.0 3.0 0.00 0.00 0.00 58 1015.3
20260505032322 62 270 0.0 0.0 0.00 0.00 0.00 62 1015.3
20260505031820 62 279 0.0 0.0 0.00 0.00 0.00 65 1015.3
20260505031316 63 261 0.0 1.0 0.00 0.00 0.00 65 1015.3
20260505030814 64 270 0.0 0.0 0.00 0.00 0.00 61 1015.2
20260505030310 64 270 0.0 0.0 0.00 0.00 0.00 56 1015.3
20260505025805 65 270 0.0 0.0 0.00 0.00 0.00 56 1015.4
20260505025304 65 270 0.0 0.0 0.00 0.00 0.00 57 1015.4
20260505024801 65 270 0.0 1.0 0.00 0.00 0.00 56 1015.4
20260505024258 65 220 0.0 2.0 0.00 0.00 0.00 56 1015.2
20260505023755 65 168 0.0 1.0 0.00 0.00 0.00 55 1015.2
20260505023252 66 90 0.0 0.0 0.00 0.00 0.00 55 1015.3
20260505022750 65 180 0.0 2.0 0.00 0.00 0.00 55 1015.3
20260505022247 66 352 0.0 2.0 0.00 0.00 0.00 56 1015.3
20260505021743 65 270 0.0 0.0 0.00 0.00 0.00 55 1015.2
20260505021240 66 270 0.0 0.0 0.00 0.00 0.00 55 1014.9
20260505020736 66 270 0.0 0.0 0.00 0.00 0.00 55 1015.0
20260505020231 66 254 0.0 0.0 0.00 0.00 0.00 54 1015.1
20260505015729 66 203 0.0 0.0 0.00 0.00 0.00 54 1014.9
20260505015226 66 203 0.0 0.0 0.00 0.00 0.00 54 1015.2
20260505014723 67 203 0.0 1.0 0.00 0.00 0.00 54 1014.8
20260505014220 67 188 0.0 0.0 0.00 0.00 0.00 53 1015.0
20260505013717 67 174 0.0 2.0 0.00 0.00 0.00 53 1014.9
20260505013214 68 154 0.0 0.0 0.00 0.00 0.00 52 1014.8
20260505012712 68 180 0.0 1.0 0.00 0.00 0.00 52 1014.7
20260505012209 68 180 0.0 1.0 0.00 0.00 0.00 52 1014.8
20260505011705 68 158 0.0 2.0 0.00 0.00 0.00 53 1014.9
20260505011202 68 194 0.0 2.0 0.00 0.00 0.00 53 1014.6
20260505010657 68 164 0.0 2.0 0.00 0.00 0.00 53 1014.5
20260505010154 68 198 0.0 3.0 0.00 0.00 0.00 54 1014.5
20260505005650 68 203 0.0 2.0 0.00 0.00 0.00 55 1014.4
20260505005148 68 151 0.0 0.0 0.00 0.00 0.00 55 1014.5
20260505004645 68 157 0.0 2.0 0.00 0.00 0.00 54 1014.3
20260505004141 68 0 0.0 0.0 0.00 0.00 0.00 54 1014.5
20260505003638 68 0 0.0 0.0 0.00 0.00 0.00 53 1014.4
20260505003136 68 0 0.0 0.0 0.00 0.00 0.00 54 1014.2
20260505002632 69 0 0.0 1.0 0.00 0.00 0.00 55 1014.6
20260505002130 69 0 0.0 0.0 0.00 0.00 0.00 54 1014.3
20260505001627 69 0 0.0 0.0 0.00 0.00 0.00 54 1014.2
20260505001124 0 0.0 0.0 0.00 0.00 0.00 1014.3
20260505000621 0 0.0 0.0 0.00 0.00 0.00 1014.2
20260505000119 0 0.0 0.0 0.00 0.00 0.00 1014.4
20260504235615 0 0.0 0.0 0.00 0.00 0.00 1014.3
20260504235112 0 0.0 0.0 0.00 0.00 0.00 1014.4
20260504234609 0 0.0 0.0 0.00 0.00 0.00 1014.1
20260504234106 0 0.0 0.0 0.00 0.00 0.00 1014.0
20260504233601 0 0.0 0.0 0.00 0.00 0.00 1014.0
20260504233058 0 0.0 0.0 0.00 0.00 0.00 1014.1
20260504232556 0 0.0 0.0 0.00 0.00 0.00 1014.1
20260504232053 0 0.0 0.0 0.00 0.00 0.00 1014.1
20260504231549 0 0.0 0.0 0.00 0.00 0.00 1013.9
20260504231045 0 0.0 0.0 0.00 0.00 0.00 1013.9
20260504230542 0 0.0 0.0 0.00 0.00 0.00 1014.1
20260504230041 0 0.0 0.0 0.00 0.00 0.00 1013.9
20260504225538 0 0.0 0.0 0.00 0.00 0.00 1013.6
20260504225035 0 0.0 0.0 0.00 0.00 0.00 1013.9
20260504224531 0 0.0 0.0 0.00 0.00 0.00 1013.9
20260504224029 0 0.0 0.0 0.00 0.00 0.00 1014.0
20260504223525 0 0.0 0.0 0.00 0.00 0.00 1014.0
20260504223021 0 0.0 0.0 0.00 0.00 0.00 1013.9
20260504222518 0 0.0 0.0 0.00 0.00 0.00 1014.1
20260504222016 0 0.0 0.0 0.00 0.00 0.00 1014.0
20260504221513 0 0.0 0.0 0.00 0.00 0.00 1013.9
20260504221009 0 0.0 0.0 0.00 0.00 0.00 1013.7
20260504220506 0 0.0 0.0 0.00 0.00 0.00 1013.9
20260504220003 0 0.0 0.0 0.00 0.00 0.00 1014.0
20260504215459 0 0.0 0.0 0.00 0.00 0.00 1014.1
20260504214956 0 0.0 0.0 0.00 0.00 0.00 1014.0
20260504214453 0 0.0 0.0 0.00 0.00 0.00 1013.9
20260504213949 0 0.0 0.0 0.00 0.00 0.00 1014.0
20260504213445 0 0.0 0.0 0.00 0.00 0.00 1014.0
20260504212943 0 0.0 0.0 0.00 0.00 0.00 1014.2
20260504212438 0 0.0 0.0 0.00 0.00 0.00 1013.9
20260504211937 0 0.0 0.0 0.00 0.00 0.00 1014.1
20260504211433 0 0.0 0.0 0.00 0.00 0.00 1014.2
20260504210930 0 0.0 0.0 0.00 0.00 0.00 1014.1
20260504210427 0 0.0 0.0 0.00 0.00 0.00 1014.2
20260504205924 0 0.0 0.0 0.00 0.00 0.00 1014.0
20260504205422 0 0.0 0.0 0.00 0.00 0.00 1014.2
20260504204920 0 0.0 0.0 0.00 0.00 0.00 1014.1